^^
Station Historical Data
Daily Summary for March 10, 2017 Units:  Metric    English   Both
« Previous Day
Next Day »
Daily Weekly Monthly Yearly Custom
  High: Low: Average:
Temperature: 37.2 °C 25.8 °C 30.9 °C
Dew Point: 9 °C 2.7 °C 5.2 °C
Humidity: 33% 12% 21%
Wind Speed: 22.7km/h 0km/h 7.6km/h
Wind Gust: 30.6km/h - -
Wind- - East
Pressure: 1008.7 hPa 1005.6 hPa -
Precipitation: 0 mm    
Historical Graphs
 
 
Tabular Data for March 10, 2017
Time Temperature Dew Point Pressure Wind Wind Speed Wind Gust Humidity Rainfall Rate (Hourly) solar Conditions
00:04 29.6 °C 5.6 °C 1008 hPa SE 11.1 km/h 19.3 km/h 22% 0 mm 0.0 W/m2
00:09 29.6 °C 5.6 °C 1008 hPa ESE 16.3 km/h 20.9 km/h 22% 0 mm 0.0 W/m2
00:19 29.7 °C 5.7 °C 1008 hPa ESE 14.3 km/h 20.9 km/h 22% 0 mm 0.0 W/m2
00:24 29.6 °C 5.6 °C 1008 hPa ESE 11.1 km/h 16.1 km/h 22% 0 mm 0.0 W/m2
00:29 29.4 °C 5.5 °C 1008 hPa ESE 13 km/h 22.5 km/h 22% 0 mm 0.0 W/m2
00:34 29.3 °C 5.4 °C 1007.7 hPa ESE 11.1 km/h 17.7 km/h 22% 0 mm 0.0 W/m2
00:39 29.2 °C 5.9 °C 1007.7 hPa ESE 13 km/h 19.3 km/h 23% 0 mm 0.0 W/m2
00:44 29.2 °C 5.9 °C 1007.7 hPa ESE 9.7 km/h 14.5 km/h 23% 0 mm 0.0 W/m2
00:49 29.2 °C 5.3 °C 1007.7 hPa ESE 9.7 km/h 20.9 km/h 22% 0 mm 0.0 W/m2
00:54 29.8 °C 5.1 °C 1007.7 hPa ESE 13 km/h 17.7 km/h 21% 0 mm 0.0 W/m2
00:59 30.2 °C 4.8 °C 1007.7 hPa East 13 km/h 16.1 km/h 20% 0 mm 0.0 W/m2
01:04 30.3 °C 4.8 °C 1007.7 hPa East 11.1 km/h 16.1 km/h 20% 0 mm 0.0 W/m2
01:09 30.3 °C 4.8 °C 1007.7 hPa East 6.4 km/h 11.3 km/h 20% 0 mm 0.0 W/m2
01:15 30.1 °C 4.7 °C 1007.3 hPa East 11.1 km/h 14.5 km/h 20% 0 mm 0.0 W/m2
01:20 30.1 °C 4.7 °C 1007.3 hPa East 13 km/h 14.5 km/h 20% 0 mm 0.0 W/m2
01:30 30.1 °C 4.7 °C 1007.3 hPa East 17.7 km/h 25.7 km/h 20% 0 mm 0.0 W/m2
01:40 30.2 °C 4 °C 1007.7 hPa East 14.3 km/h 22.5 km/h 19% 0 mm 0.0 W/m2
01:45 30.1 °C 3.9 °C 1007.7 hPa East 11.1 km/h 19.3 km/h 19% 0 mm 0.0 W/m2
01:50 30.1 °C 3.9 °C 1007.3 hPa East 19.5 km/h 27.4 km/h 19% 0 mm 0.0 W/m2
02:00 30 °C 4.6 °C 1007.7 hPa East 14.3 km/h 22.5 km/h 20% 0 mm 0.0 W/m2
02:05 29.6 °C 4.3 °C 1007.3 hPa ESE 14.3 km/h 19.3 km/h 20% 0 mm 0.0 W/m2
02:15 29.6 °C 4.3 °C 1007.3 hPa East 16.3 km/h 22.5 km/h 20% 0 mm 0.0 W/m2
02:25 29.1 °C 3.9 °C 1007.3 hPa ESE 13 km/h 22.5 km/h 20% 0 mm 0.0 W/m2
02:35 28.7 °C 4.2 °C 1007.3 hPa ESE 22.7 km/h 25.7 km/h 21% 0 mm 0.0 W/m2
02:40 28.6 °C 4.1 °C 1007.3 hPa ESE 11.1 km/h 24.1 km/h 21% 0 mm 0.0 W/m2
02:45 28.5 °C 4.1 °C 1007.3 hPa ESE 16.3 km/h 22.5 km/h 21% 0 mm 0.0 W/m2
02:50 28.5 °C 4.1 °C 1007.3 hPa ESE 16.3 km/h 20.9 km/h 21% 0 mm 0.0 W/m2
02:55 28.4 °C 4 °C 1007.3 hPa ESE 16.3 km/h 20.9 km/h 21% 0 mm 0.0 W/m2
03:00 28.2 °C 3.8 °C 1007.3 hPa ESE 17.7 km/h 20.9 km/h 21% 0 mm 0.0 W/m2
03:05 28.2 °C 3.8 °C 1007 hPa ESE 13 km/h 19.3 km/h 21% 0 mm 0.0 W/m2
03:10 28.2 °C 3.8 °C 1007 hPa ESE 16.3 km/h 19.3 km/h 21% 0 mm 0.0 W/m2
03:15 28.2 °C 3.8 °C 1007.3 hPa ESE 16.3 km/h 25.7 km/h 21% 0 mm 0.0 W/m2
03:20 28.1 °C 3.7 °C 1007 hPa ESE 11.1 km/h 19.3 km/h 21% 0 mm 0.0 W/m2
03:25 28.7 °C 4.2 °C 1007 hPa East 17.7 km/h 30.6 km/h 21% 0 mm 0.0 W/m2
03:30 28.9 °C 3.7 °C 1007 hPa East 9.7 km/h 16.1 km/h 20% 0 mm 0.0 W/m2
03:40 28.7 °C 4.2 °C 1007 hPa East 16.3 km/h 24.1 km/h 21% 0 mm 0.0 W/m2
03:45 28.8 °C 4.3 °C 1007.3 hPa East 14.3 km/h 24.1 km/h 21% 0 mm 0.0 W/m2
03:50 28.6 °C 4.1 °C 1007.3 hPa East 9.7 km/h 17.7 km/h 21% 0 mm 0.0 W/m2
04:00 28.2 °C 4.5 °C 1007.3 hPa East 11.1 km/h 20.9 km/h 22% 0 mm 0.0 W/m2
04:05 28.4 °C 5.3 °C 1007.3 hPa East 14.3 km/h 20.9 km/h 23% 0 mm 0.0 W/m2
04:10 28.2 °C 5.1 °C 1007 hPa East 11.1 km/h 17.7 km/h 23% 0 mm 0.0 W/m2
04:15 27.8 °C 4.8 °C 1007 hPa East 16.3 km/h 17.7 km/h 23% 0 mm 0.0 W/m2
04:21 27.4 °C 5 °C 1007 hPa East 13 km/h 17.7 km/h 24% 0 mm 0.0 W/m2
04:26 27.3 °C 5.5 °C 1007 hPa East 17.7 km/h 17.7 km/h 25% 0 mm 0.0 W/m2
04:31 27.3 °C 5.5 °C 1007 hPa East 14.3 km/h 16.1 km/h 25% 0 mm 0.0 W/m2
04:41 27 °C 5.9 °C 1007.3 hPa East 11.1 km/h 16.1 km/h 26% 0 mm 0.0 W/m2
04:51 26.8 °C 6.8 °C 1007.3 hPa East 11.1 km/h 14.5 km/h 28% 0 mm 0.0 W/m2
05:01 27.3 °C 7.2 °C 1007.3 hPa East 6.4 km/h 14.5 km/h 28% 0 mm 0.0 W/m2
05:06 27.3 °C 7.2 °C 1007.3 hPa East 6.4 km/h 9.7 km/h 28% 0 mm 0.0 W/m2
05:11 27.2 °C 7.1 °C 1007.3 hPa East 9.7 km/h 14.5 km/h 28% 0 mm 0.0 W/m2
05:21 27.1 °C 7 °C 1007.3 hPa East 6.4 km/h 11.3 km/h 28% 0 mm 0.0 W/m2
05:26 26.9 °C 7.4 °C 1007.3 hPa East 11.1 km/h 11.3 km/h 29% 0 mm 0.0 W/m2
05:31 26.7 °C 7.2 °C 1007.3 hPa Calm   4.8 km/h 29% 0 mm 0.0 W/m2
05:42 26.4 °C 7.4 °C 1007.3 hPa East 3.2 km/h 11.3 km/h 30% 0 mm 0.0 W/m2
06:02 26.3 °C 7.3 °C 1007.7 hPa East 7.9 km/h 12.9 km/h 30% 0 mm 0.0 W/m2
06:12 26.3 °C 7.8 °C 1007.7 hPa East 9.7 km/h 12.9 km/h 31% 0 mm 0.0 W/m2
06:17 26.4 °C 7.9 °C 1007.7 hPa East 11.1 km/h 20.9 km/h 31% 0 mm 0.0 W/m2
06:22 26.4 °C 7.4 °C 1007.7 hPa East 14.3 km/h 16.1 km/h 30% 0 mm 0.0 W/m2
06:28 26.3 °C 7.3 °C 1007.7 hPa East 1.4 km/h 8 km/h 30% 0 mm 0.0 W/m2
06:37 26.4 °C 7.9 °C 1008.4 hPa ENE 11.1 km/h 20.9 km/h 31% 0 mm 0.0 W/m2
06:47 26.7 °C 7.7 °C 1008 hPa ENE 13 km/h 14.5 km/h 30% 0 mm 5.0 W/m2
07:02 26 °C 7.6 °C 1008.4 hPa ENE 9.7 km/h 9.7 km/h 31% 0 mm 14.0 W/m2
07:08 25.9 °C 7.5 °C 1008.4 hPa ENE 4.7 km/h 11.3 km/h 31% 0 mm 18.0 W/m2
07:11 25.9 °C 7.5 °C 1008.4 hPa ENE 7.9 km/h 8 km/h 31% 0 mm 25.0 W/m2
07:20 25.8 °C 7.9 °C 1008.4 hPa Calm     32% 0 mm 39.0 W/m2
07:31 26 °C 8 °C 1008.4 hPa Calm   4.8 km/h 32% 0 mm 70.0 W/m2
07:36 25.9 °C 8.4 °C 1008.4 hPa Calm     33% 0 mm 111.0 W/m2
07:46 26.5 °C 8.9 °C 1008.4 hPa ENE 3.2 km/h 8 km/h 33% 0 mm 155.0 W/m2
07:51 26.8 °C 8.7 °C 1008.4 hPa ENE 4.7 km/h 9.7 km/h 32% 0 mm 178.0 W/m2
07:59 27.3 °C 8.7 °C 1008.7 hPa ENE 7.9 km/h 8 km/h 31% 0 mm 197.0 W/m2
08:01 27.7 °C 9 °C 1008.7 hPa ENE 7.9 km/h 11.3 km/h 31% 0 mm 220.0 W/m2
09:10 30.8 °C 8.5 °C 1008.7 hPa ENE 3.2 km/h 9.7 km/h 25% 0 mm 459.0 W/m2
11:30 34.5 °C 6.7 °C 1008.7 hPa Calm     18% 0 mm 835.0 W/m2
11:46 34.3 °C 4.9 °C 1008.4 hPa Calm     16% 0 mm 854.0 W/m2
12:03 34.9 °C 6.2 °C 1008.4 hPa Calm     17% 0 mm 870.0 W/m2
12:12 35.4 °C 5.8 °C 1008.4 hPa Calm     16% 0 mm 886.0 W/m2
12:22 35.3 °C 4.7 °C 1008 hPa Calm   11.3 km/h 15% 0 mm 889.0 W/m2
12:32 35.3 °C 5.7 °C 1008 hPa Calm     16% 0 mm 900.0 W/m2
12:53 35.4 °C 4.8 °C 1007.7 hPa Calm     15% 0 mm 909.0 W/m2
13:03 35.8 °C 5.1 °C 1007.7 hPa Calm   4.8 km/h 15% 0 mm 907.0 W/m2
13:08 36.2 °C 4.5 °C 1007.7 hPa Calm   8 km/h 14% 0 mm 900.0 W/m2
13:23 36.1 °C 4.4 °C 1007.3 hPa NE 7.9 km/h 8 km/h 14% 0 mm 896.0 W/m2
13:34 36.4 °C 4.6 °C 1007.3 hPa Calm   12.9 km/h 14% 0 mm 888.0 W/m2
13:54 35.9 °C 4.2 °C 1007.3 hPa Calm     14% 0 mm 877.0 W/m2
13:59 36.5 °C 4.7 °C 1007 hPa NE 9.7 km/h 9.7 km/h 14% 0 mm 867.0 W/m2
14:15 36.8 °C 3.9 °C 1007 hPa Calm     13% 0 mm 846.0 W/m2
14:30 37 °C 4 °C 1006.7 hPa Calm   8 km/h 13% 0 mm 821.0 W/m2
14:49 36.8 °C 3.9 °C 1006.7 hPa NE 3.2 km/h 3.2 km/h 13% 0 mm 795.0 W/m2
14:56 36.6 °C 3.7 °C 1006.3 hPa Calm   8 km/h 13% 0 mm 775.0 W/m2
15:09 36.7 °C 3.8 °C 1006.3 hPa Calm     13% 0 mm 752.0 W/m2
15:11 36.9 °C 4 °C 1006.3 hPa Calm     13% 0 mm 742.0 W/m2
15:18 37.2 °C 3.1 °C 1006.3 hPa East 1.4 km/h 14.5 km/h 12% 0 mm 731.0 W/m2
15:23 36.9 °C 2.8 °C 1006.3 hPa East 9.7 km/h 16.1 km/h 12% 0 mm 717.0 W/m2
18:07 36.4 °C 3.6 °C 1005.6 hPa Calm     13% 0 mm 178.0 W/m2
18:17 36.8 °C 3.9 °C 1005.6 hPa Calm     13% 0 mm 134.0 W/m2
18:26 36.6 °C 3.7 °C 1005.6 hPa ESE 9.7 km/h 12.9 km/h 13% 0 mm 97.0 W/m2
18:32 36.3 °C 3.5 °C 1005.6 hPa ESE 9.7 km/h 9.7 km/h 13% 0 mm 79.0 W/m2
18:41 36.2 °C 3.4 °C 1005.6 hPa ESE 7.9 km/h 11.3 km/h 13% 0 mm 46.0 W/m2
18:47 36.1 °C 3.3 °C 1005.6 hPa ESE 6.4 km/h 9.7 km/h 13% 0 mm 30.0 W/m2
18:57 35.9 °C 3.2 °C 1005.6 hPa ESE 4.7 km/h 8 km/h 13% 0 mm 16.0 W/m2
19:06 35.4 °C 3.8 °C 1005.6 hPa ESE 4.7 km/h 8 km/h 14% 0 mm 7.0 W/m2
19:11 35.3 °C 2.7 °C 1005.6 hPa ESE 13 km/h 16.1 km/h 13% 0 mm 0.0 W/m2
19:17 35.2 °C 3.7 °C 1005.6 hPa ESE 7.9 km/h 12.9 km/h 14% 0 mm 0.0 W/m2
19:27 34.9 °C 3.4 °C 1006 hPa ESE 9.7 km/h 9.7 km/h 14% 0 mm 0.0 W/m2
19:36 34.7 °C 3.3 °C 1006 hPa ESE 3.2 km/h 8 km/h 14% 0 mm 0.0 W/m2
19:42 34.6 °C 3.2 °C 1006 hPa ESE 7.9 km/h 8 km/h 14% 0 mm 0.0 W/m2
19:47 34.4 °C 3.1 °C 1006 hPa ESE 7.9 km/h 9.7 km/h 14% 0 mm 0.0 W/m2
19:56 34.2 °C 2.9 °C 1006 hPa Calm   1.6 km/h 14% 0 mm 0.0 W/m2
20:03 34.1 °C 2.8 °C 1006 hPa Calm     14% 0 mm 0.0 W/m2
20:33 32.9 °C 3.8 °C 1006.3 hPa Calm     16% 0 mm 0.0 W/m2
20:38 32.9 °C 4.6 °C 1006.3 hPa Calm     17% 0 mm 0.0 W/m2
20:43 33.1 °C 4.8 °C 1006.3 hPa Calm     17% 0 mm 0.0 W/m2
20:53 32.8 °C 4.5 °C 1006.3 hPa Calm     17% 0 mm 0.0 W/m2
20:58 32.8 °C 4.5 °C 1006.7 hPa Calm     17% 0 mm 0.0 W/m2
21:04 32.8 °C 4.5 °C 1006.7 hPa Calm     17% 0 mm 0.0 W/m2
21:07 32.7 °C 5.3 °C 1006.7 hPa Calm     18% 0 mm 0.0 W/m2
21:15 32.5 °C 5.1 °C 1006.7 hPa Calm     18% 0 mm 0.0 W/m2
21:18 32.3 °C 5 °C 1006.7 hPa Calm     18% 0 mm 0.0 W/m2
21:28 32.1 °C 4.8 °C 1006.7 hPa Calm     18% 0 mm 0.0 W/m2
21:40 32 °C 5.5 °C 1006.7 hPa Calm     19% 0 mm 0.0 W/m2
21:51 31.9 °C 5.4 °C 1007 hPa Calm     19% 0 mm 0.0 W/m2
21:59 31.6 °C 5.2 °C 1007 hPa Calm     19% 0 mm 0.0 W/m2
Canyon Roadhouse, Fishriver Canyon, Namibia
Compliments of Weather Underground - 2.25 mb